Stephens, Missouri
Current Conditions -  °F | °C
As of 4:54 AM on Wednesday 26 Nov 2014 (Local Time) from KCOU Reporting Station
Overcast Overcast  
Wind Chill: 22°   Ceiling: 9500
Heat Index: 30°   Visibility: 10mi
Dew Point: 21°   Wind: 9mph
Humidity: 69%   Direction: 130°SE
Pressure: 30"   Gusts: NA
Location:  39.0235°N, 92.2896°W
Report Text: KCOU 261054Z AUTO 13008KT 10SM OVC095 M01/M06 A3000 RMK AO2 SLP167 T10111061
Loading
Personal Weather Stations






























Interactive Weather Map New forecast layout! Learn more

10-Day Weather Forecast

Advertisements
Track Severe Weather on mobile